PWSweather.com
Personal Weather Stations
Station Observations

PoschiavoCH

Lat: 46.31962499999999, Lon: 10.066551000000004

Elevation: 3517

Station Type: WH 1080

http://www.meteoposchiavo.com

High Low Average
Temperature 80.0°F26.7°C 55.0°F12.8°C 67.0°F19.4°C
Dew Point 64.4°F18.0°C 42.4°F5.8°C 56.2°F13.4°C
Winds 4.6 mph 7.4 kmh Calm Calm Calm SSECalm SSE
Wind Gusts 6.9 mph11.1 kmh -- 1.0 mph1.6 kmh
Humidity 89% 45% 70%
Pressure 26.67 in903.2 mb 26.56 in899.4 mb -
Precipitation 0.01 in0.3 mm - -
Hour Temp Dew Point Humidity Winds Wind Gusts Pressure Precip Precip Rate Daily Precip Total
12:00 AM 60.0°F15.6°C 54.5°F12.5°C 82% Calm Calm -- 26.66 in902.8 mb - 0.00 in0.0 mm 0.00 in0.0 mm
12:10 AM 60.0°F15.6°C 53.5°F11.9°C 79% Calm Calm -- 26.66 in902.8 mb - 0.00 in0.0 mm 0.00 in0.0 mm
12:15 AM 60.0°F15.6°C 53.8°F12.1°C 80% Calm Calm -- 26.66 in902.8 mb - 0.00 in0.0 mm 0.00 in0.0 mm
12:20 AM 60.0°F15.6°C 52.8°F11.6°C 77% Calm Calm -- 26.66 in902.8 mb - 0.00 in0.0 mm 0.00 in0.0 mm
12:25 AM 60.0°F15.6°C 52.4°F11.3°C 76% Calm Calm -- 26.66 in902.8 mb - 0.00 in0.0 mm 0.00 in0.0 mm
12:30 AM 61.0°F16.1°C 53.0°F11.7°C 75% Calm Calm 1.2 mph1.9 kmh 26.66 in902.8 mb - 0.00 in0.0 mm 0.00 in0.0 mm
12:35 AM 61.0°F16.1°C 52.3°F11.3°C 73% Calm Calm -- 26.66 in902.8 mb - 0.00 in0.0 mm 0.00 in0.0 mm
12:40 AM 61.0°F16.1°C 53.7°F12.1°C 77% Calm Calm -- 26.66 in902.8 mb - 0.00 in0.0 mm 0.00 in0.0 mm
12:45 AM 60.0°F15.6°C 53.1°F11.7°C 78% Calm Calm -- 26.67 in903.2 mb - 0.00 in0.0 mm 0.00 in0.0 mm
12:50 AM 60.0°F15.6°C 52.8°F11.6°C 77% Calm Calm -- 26.66 in902.8 mb - 0.00 in0.0 mm 0.00 in0.0 mm
12:55 AM 60.0°F15.6°C 52.8°F11.6°C 77% Calm Calm -- 26.66 in902.8 mb - 0.00 in0.0 mm 0.00 in0.0 mm
01:00 AM 60.0°F15.6°C 53.5°F11.9°C 79% Calm Calm -- 26.66 in902.8 mb - 0.00 in0.0 mm 0.00 in0.0 mm
01:10 AM 59.0°F15.0°C 52.1°F11.2°C 78% Calm Calm -- 26.66 in902.8 mb - 0.00 in0.0 mm 0.00 in0.0 mm
01:15 AM 59.0°F15.0°C 52.8°F11.6°C 80% Calm Calm -- 26.65 in902.5 mb - 0.00 in0.0 mm 0.00 in0.0 mm
01:20 AM 59.0°F15.0°C 53.5°F11.9°C 82% Calm Calm -- 26.66 in902.8 mb - 0.00 in0.0 mm 0.00 in0.0 mm
01:25 AM 59.0°F15.0°C 53.2°F11.8°C 81% Calm Calm -- 26.66 in902.8 mb - 0.00 in0.0 mm 0.00 in0.0 mm
01:30 AM 59.0°F15.0°C 52.8°F11.6°C 80% Calm Calm -- 26.66 in902.8 mb - 0.00 in0.0 mm 0.00 in0.0 mm
01:35 AM 59.0°F15.0°C 52.8°F11.6°C 80% Calm Calm -- 26.66 in902.8 mb - 0.00 in0.0 mm 0.00 in0.0 mm
01:40 AM 60.0°F15.6°C 54.2°F12.3°C 81% Calm Calm -- 26.66 in902.8 mb - 0.00 in0.0 mm 0.00 in0.0 mm
01:45 AM 59.0°F15.0°C 53.8°F12.1°C 83% Calm Calm -- 26.65 in902.5 mb - 0.00 in0.0 mm 0.00 in0.0 mm
01:50 AM 59.0°F15.0°C 52.8°F11.6°C 80% Calm Calm -- 26.65 in902.5 mb - 0.00 in0.0 mm 0.00 in0.0 mm
01:55 AM 59.0°F15.0°C 52.8°F11.6°C 80% Calm Calm -- 26.65 in902.5 mb - 0.00 in0.0 mm 0.00 in0.0 mm
02:00 AM 59.0°F15.0°C 52.8°F11.6°C 80% Calm Calm -- 26.65 in902.5 mb - 0.00 in0.0 mm 0.00 in0.0 mm
02:10 AM 59.0°F15.0°C 52.8°F11.6°C 80% Calm Calm -- 26.65 in902.5 mb - 0.00 in0.0 mm 0.00 in0.0 mm
02:15 AM 59.0°F15.0°C 53.2°F11.8°C 81% Calm Calm -- 26.65 in902.5 mb - 0.00 in0.0 mm 0.00 in0.0 mm
02:20 AM 59.0°F15.0°C 53.8°F12.1°C 83% Calm Calm -- 26.65 in902.5 mb - 0.00 in0.0 mm 0.00 in0.0 mm
02:25 AM 58.2°F14.6°C 53.4°F11.9°C 84% Calm Calm -- 26.65 in902.5 mb - 0.00 in0.0 mm 0.00 in0.0 mm
02:30 AM 58.0°F14.4°C 53.2°F11.8°C 84% Calm Calm -- 26.65 in902.5 mb - 0.00 in0.0 mm 0.00 in0.0 mm
02:35 AM 58.0°F14.4°C 53.5°F11.9°C 85% Calm Calm -- 26.65 in902.5 mb - 0.00 in0.0 mm 0.00 in0.0 mm
02:40 AM 58.0°F14.4°C 53.5°F11.9°C 85% Calm Calm -- 26.65 in902.5 mb - 0.00 in0.0 mm 0.00 in0.0 mm
02:45 AM 58.0°F14.4°C 52.5°F11.4°C 82% Calm Calm -- 26.65 in902.5 mb - 0.00 in0.0 mm 0.00 in0.0 mm
02:50 AM 71.0°F21.7°C 57.3°F14.1°C 62% Calm Calm -- 26.59 in900.4 mb - 0.00 in0.0 mm 0.00 in0.0 mm
02:55 AM 59.0°F15.0°C 42.4°F5.8°C 54% Calm Calm -- 26.65 in902.5 mb - 0.00 in0.0 mm 0.00 in0.0 mm
03:00 AM 59.0°F15.0°C 53.8°F12.1°C 83% Calm Calm -- 26.65 in902.5 mb - 0.00 in0.0 mm 0.00 in0.0 mm
03:10 AM 59.0°F15.0°C 54.2°F12.3°C 84% Calm Calm -- 26.65 in902.5 mb - 0.00 in0.0 mm 0.00 in0.0 mm
03:15 AM 58.0°F14.4°C 53.2°F11.8°C 84% Calm Calm -- 26.65 in902.5 mb - 0.00 in0.0 mm 0.00 in0.0 mm
03:20 AM 58.0°F14.4°C 52.2°F11.2°C 81% Calm Calm -- 26.65 in902.5 mb - 0.00 in0.0 mm 0.00 in0.0 mm
03:25 AM 58.0°F14.4°C 52.9°F11.6°C 83% Calm Calm -- 26.65 in902.5 mb - 0.00 in0.0 mm 0.00 in0.0 mm
03:30 AM 58.0°F14.4°C 52.9°F11.6°C 83% Calm Calm -- 26.65 in902.5 mb - 0.00 in0.0 mm 0.00 in0.0 mm
03:35 AM 58.0°F14.4°C 52.9°F11.6°C 83% Calm Calm -- 26.64 in902.1 mb - 0.00 in0.0 mm 0.00 in0.0 mm
03:40 AM 58.0°F14.4°C 52.5°F11.4°C 82% Calm Calm -- 26.64 in902.1 mb - 0.00 in0.0 mm 0.00 in0.0 mm
03:45 AM 58.0°F14.4°C 53.2°F11.8°C 84% Calm Calm -- 26.65 in902.5 mb - 0.00 in0.0 mm 0.00 in0.0 mm
03:50 AM 57.0°F13.9°C 52.2°F11.2°C 84% Calm Calm -- 26.65 in902.5 mb - 0.00 in0.0 mm 0.00 in0.0 mm
03:55 AM 58.0°F14.4°C 53.2°F11.8°C 84% Calm Calm -- 26.65 in902.5 mb - 0.00 in0.0 mm 0.00 in0.0 mm
04:00 AM 58.0°F14.4°C 53.2°F11.8°C 84% Calm Calm -- 26.65 in902.5 mb - 0.00 in0.0 mm 0.00 in0.0 mm
04:10 AM 58.0°F14.4°C 53.2°F11.8°C 84% Calm Calm -- 26.66 in902.8 mb - 0.00 in0.0 mm 0.00 in0.0 mm
04:15 AM 58.0°F14.4°C 53.5°F11.9°C 85% Calm Calm -- 26.65 in902.5 mb - 0.00 in0.0 mm 0.00 in0.0 mm
04:20 AM 58.0°F14.4°C 53.5°F11.9°C 85% Calm Calm -- 26.65 in902.5 mb - 0.00 in0.0 mm 0.00 in0.0 mm
04:25 AM 58.0°F14.4°C 53.5°F11.9°C 85% Calm Calm -- 26.64 in902.1 mb - 0.00 in0.0 mm 0.00 in0.0 mm
04:30 AM 57.7°F14.3°C 53.2°F11.8°C 85% Calm Calm -- 26.64 in902.1 mb - 0.00 in0.0 mm 0.00 in0.0 mm
04:35 AM 57.0°F13.9°C 52.5°F11.4°C 85% Calm Calm -- 26.65 in902.5 mb - 0.00 in0.0 mm 0.00 in0.0 mm
04:40 AM 56.0°F13.3°C 51.9°F11.1°C 86% Calm Calm -- 26.65 in902.5 mb - 0.00 in0.0 mm 0.00 in0.0 mm
04:45 AM 56.0°F13.3°C 51.9°F11.1°C 86% Calm Calm -- 26.65 in902.5 mb - 0.00 in0.0 mm 0.00 in0.0 mm
04:50 AM 56.0°F13.3°C 51.9°F11.1°C 86% Calm Calm -- 26.65 in902.5 mb - 0.00 in0.0 mm 0.00 in0.0 mm
04:55 AM 56.0°F13.3°C 51.9°F11.1°C 86% Calm Calm -- 26.65 in902.5 mb - 0.00 in0.0 mm 0.00 in0.0 mm
05:00 AM 56.0°F13.3°C 51.9°F11.1°C 86% Calm Calm -- 26.65 in902.5 mb - 0.00 in0.0 mm 0.00 in0.0 mm
05:10 AM 55.0°F12.8°C 51.2°F10.7°C 87% Calm Calm -- 26.65 in902.5 mb - 0.00 in0.0 mm 0.00 in0.0 mm
05:15 AM 56.0°F13.3°C 51.6°F10.9°C 85% Calm Calm -- 26.66 in902.8 mb - 0.00 in0.0 mm 0.00 in0.0 mm
05:20 AM 56.0°F13.3°C 52.2°F11.2°C 87% Calm Calm -- 26.66 in902.8 mb - 0.00 in0.0 mm 0.00 in0.0 mm
05:25 AM 56.0°F13.3°C 52.2°F11.2°C 87% Calm Calm -- 26.66 in902.8 mb - 0.00 in0.0 mm 0.00 in0.0 mm
05:30 AM 56.0°F13.3°C 52.5°F11.4°C 88% Calm Calm -- 26.66 in902.8 mb - 0.00 in0.0 mm 0.00 in0.0 mm
05:35 AM 55.0°F12.8°C 51.5°F10.8°C 88% Calm Calm -- 26.66 in902.8 mb - 0.00 in0.0 mm 0.00 in0.0 mm
05:40 AM 55.0°F12.8°C 51.5°F10.8°C 88% Calm Calm -- 26.67 in903.2 mb - 0.00 in0.0 mm 0.00 in0.0 mm
05:45 AM 56.0°F13.3°C 52.5°F11.4°C 88% Calm Calm -- 26.67 in903.2 mb - 0.00 in0.0 mm 0.00 in0.0 mm
05:50 AM 56.0°F13.3°C 52.5°F11.4°C 88% Calm Calm -- 26.66 in902.8 mb - 0.00 in0.0 mm 0.00 in0.0 mm
05:55 AM 56.0°F13.3°C 52.5°F11.4°C 88% Calm Calm -- 26.66 in902.8 mb - 0.00 in0.0 mm 0.00 in0.0 mm
06:00 AM 55.0°F12.8°C 51.8°F11.0°C 89% Calm Calm -- 26.66 in902.8 mb - 0.00 in0.0 mm 0.00 in0.0 mm
06:10 AM 57.0°F13.9°C 53.2°F11.8°C 87% Calm Calm -- 26.66 in902.8 mb - 0.00 in0.0 mm 0.00 in0.0 mm
06:15 AM 56.0°F13.3°C 52.5°F11.4°C 88% Calm Calm -- 26.66 in902.8 mb - 0.00 in0.0 mm 0.00 in0.0 mm
06:20 AM 56.0°F13.3°C 52.5°F11.4°C 88% Calm Calm -- 26.66 in902.8 mb - 0.00 in0.0 mm 0.00 in0.0 mm
06:25 AM 56.0°F13.3°C 52.8°F11.6°C 89% Calm Calm -- 26.66 in902.8 mb - 0.00 in0.0 mm 0.00 in0.0 mm
06:30 AM 56.0°F13.3°C 52.5°F11.4°C 88% Calm Calm -- 26.66 in902.8 mb - 0.00 in0.0 mm 0.00 in0.0 mm
06:35 AM 56.0°F13.3°C 51.2°F10.7°C 84% Calm Calm -- 26.66 in902.8 mb - 0.00 in0.0 mm 0.00 in0.0 mm
06:40 AM 57.0°F13.9°C 52.9°F11.6°C 86% Calm Calm -- 26.66 in902.8 mb - 0.00 in0.0 mm 0.00 in0.0 mm
06:45 AM 57.0°F13.9°C 53.2°F11.8°C 87% Calm Calm -- 26.66 in902.8 mb - 0.00 in0.0 mm 0.00 in0.0 mm
06:50 AM 57.0°F13.9°C 53.2°F11.8°C 87% Calm Calm -- 26.66 in902.8 mb - 0.00 in0.0 mm 0.00 in0.0 mm
06:55 AM 57.0°F13.9°C 53.2°F11.8°C 87% Calm Calm -- 26.65 in902.5 mb - 0.00 in0.0 mm 0.00 in0.0 mm
07:00 AM 57.0°F13.9°C 52.5°F11.4°C 85% Calm Calm -- 26.66 in902.8 mb - 0.00 in0.0 mm 0.00 in0.0 mm
07:10 AM 57.0°F13.9°C 53.2°F11.8°C 87% Calm Calm -- 26.65 in902.5 mb - 0.00 in0.0 mm 0.00 in0.0 mm
07:15 AM 57.3°F14.1°C 53.7°F12.1°C 88% Calm Calm -- 26.65 in902.5 mb - 0.00 in0.0 mm 0.00 in0.0 mm
07:20 AM 58.0°F14.4°C 54.8°F12.7°C 89% Calm Calm -- 26.66 in902.8 mb - 0.00 in0.0 mm 0.00 in0.0 mm
07:25 AM 58.0°F14.4°C 54.5°F12.5°C 88% Calm Calm -- 26.66 in902.8 mb - 0.00 in0.0 mm 0.00 in0.0 mm
07:30 AM 58.0°F14.4°C 53.8°F12.1°C 86% Calm Calm -- 26.66 in902.8 mb - 0.00 in0.0 mm 0.00 in0.0 mm
07:35 AM 61.0°F16.1°C 54.1°F12.3°C 78% Calm Calm -- 26.65 in902.5 mb - 0.00 in0.0 mm 0.00 in0.0 mm
07:40 AM 62.2°F16.8°C 54.5°F12.5°C 76% Calm Calm -- 26.65 in902.5 mb - 0.00 in0.0 mm 0.00 in0.0 mm
07:45 AM 63.0°F17.2°C 54.6°F12.6°C 74% Calm Calm -- 26.65 in902.5 mb - 0.00 in0.0 mm 0.00 in0.0 mm
07:50 AM 66.0°F18.9°C 55.1°F12.8°C 68% Calm Calm -- 26.65 in902.5 mb - 0.00 in0.0 mm 0.00 in0.0 mm
07:55 AM 70.0°F21.1°C 55.9°F13.3°C 61% Calm Calm -- 26.65 in902.5 mb - 0.00 in0.0 mm 0.00 in0.0 mm
08:00 AM 71.0°F21.7°C 56.4°F13.6°C 60% Calm Calm -- 26.65 in902.5 mb - 0.00 in0.0 mm 0.00 in0.0 mm
08:10 AM 73.0°F22.8°C 56.9°F13.8°C 57% Calm Calm -- 26.64 in902.1 mb - 0.00 in0.0 mm 0.00 in0.0 mm
08:15 AM 73.0°F22.8°C 55.9°F13.3°C 55% Calm Calm -- 26.64 in902.1 mb - 0.00 in0.0 mm 0.00 in0.0 mm
08:20 AM 73.0°F22.8°C 57.3°F14.1°C 58% Calm Calm -- 26.64 in902.1 mb - 0.00 in0.0 mm 0.00 in0.0 mm
08:25 AM 78.0°F25.6°C 57.3°F14.1°C 49% Calm Calm -- 26.64 in902.1 mb - 0.00 in0.0 mm 0.00 in0.0 mm
08:30 AM 77.0°F25.0°C 56.9°F13.8°C 50% Calm Calm -- 26.63 in901.8 mb - 0.00 in0.0 mm 0.00 in0.0 mm
08:35 AM 77.1°F25.1°C 57.0°F13.9°C 50% Calm Calm -- 26.63 in901.8 mb - 0.00 in0.0 mm 0.00 in0.0 mm
08:40 AM 78.0°F25.6°C 54.9°F12.7°C 45% Calm Calm -- 26.63 in901.8 mb - 0.00 in0.0 mm 0.00 in0.0 mm
08:45 AM 78.0°F25.6°C 57.9°F14.4°C 50% Calm Calm -- 26.63 in901.8 mb - 0.00 in0.0 mm 0.00 in0.0 mm
08:50 AM 80.0°F26.7°C 56.7°F13.7°C 45% Calm Calm -- 26.63 in901.8 mb - 0.00 in0.0 mm 0.00 in0.0 mm
08:55 AM 76.0°F24.4°C 57.1°F13.9°C 52% Calm Calm -- 26.62 in901.5 mb - 0.00 in0.0 mm 0.00 in0.0 mm
09:00 AM 74.4°F23.6°C 56.7°F13.7°C 54% Calm Calm -- 26.62 in901.5 mb - 0.00 in0.0 mm 0.00 in0.0 mm
09:10 AM 72.0°F22.2°C 54.9°F12.7°C 55% Calm Calm 2.3 mph3.7 kmh 26.62 in901.5 mb - 0.00 in0.0 mm 0.00 in0.0 mm
09:15 AM 71.0°F21.7°C 55.5°F13.1°C 58% Calm Calm -- 26.62 in901.5 mb - 0.00 in0.0 mm 0.00 in0.0 mm
09:20 AM 71.0°F21.7°C 55.9°F13.3°C 59% Calm Calm 1.2 mph1.9 kmh 26.63 in901.8 mb - 0.00 in0.0 mm 0.00 in0.0 mm
09:25 AM 71.0°F21.7°C 55.9°F13.3°C 59% Calm Calm 1.2 mph1.9 kmh 26.63 in901.8 mb - 0.00 in0.0 mm 0.00 in0.0 mm
09:30 AM 71.0°F21.7°C 56.4°F13.6°C 60% 1.2 mph WSW1.9 kmh WSW 1.2 mph1.9 kmh 26.63 in901.8 mb - 0.00 in0.0 mm 0.00 in0.0 mm
09:35 AM 71.0°F21.7°C 56.4°F13.6°C 60% 2.3 mph SSW3.7 kmh SSW 2.3 mph3.7 kmh 26.62 in901.5 mb - 0.00 in0.0 mm 0.00 in0.0 mm
09:40 AM 72.0°F22.2°C 55.9°F13.3°C 57% 2.3 mph S3.7 kmh S 3.5 mph5.6 kmh 26.63 in901.8 mb - 0.00 in0.0 mm 0.00 in0.0 mm
09:45 AM 72.0°F22.2°C 56.4°F13.6°C 58% 2.3 mph SE3.7 kmh SE 3.5 mph5.6 kmh 26.62 in901.5 mb - 0.00 in0.0 mm 0.00 in0.0 mm
09:50 AM 72.0°F22.2°C 56.9°F13.8°C 59% 2.3 mph ESE3.7 kmh ESE 3.5 mph5.6 kmh 26.62 in901.5 mb - 0.00 in0.0 mm 0.00 in0.0 mm
09:55 AM 71.0°F21.7°C 56.4°F13.6°C 60% 1.2 mph SSW1.9 kmh SSW 2.3 mph3.7 kmh 26.62 in901.5 mb - 0.00 in0.0 mm 0.00 in0.0 mm
10:00 AM 71.0°F21.7°C 55.9°F13.3°C 59% 3.5 mph NW5.6 kmh NW 3.5 mph5.6 kmh 26.62 in901.5 mb - 0.00 in0.0 mm 0.00 in0.0 mm
10:10 AM 72.0°F22.2°C 57.8°F14.3°C 61% Calm Calm 1.2 mph1.9 kmh 26.63 in901.8 mb - 0.00 in0.0 mm 0.00 in0.0 mm
10:15 AM 72.0°F22.2°C 56.4°F13.6°C 58% 1.2 mph W1.9 kmh W 1.2 mph1.9 kmh 26.62 in901.5 mb - 0.00 in0.0 mm 0.00 in0.0 mm
10:20 AM 73.0°F22.8°C 57.8°F14.3°C 59% Calm Calm 1.2 mph1.9 kmh 26.62 in901.5 mb - 0.00 in0.0 mm 0.00 in0.0 mm
10:25 AM 73.0°F22.8°C 57.8°F14.3°C 59% 2.3 mph SE3.7 kmh SE 3.5 mph5.6 kmh 26.62 in901.5 mb - 0.00 in0.0 mm 0.00 in0.0 mm
10:30 AM 75.0°F23.9°C 58.2°F14.6°C 56% 1.2 mph WNW1.9 kmh WNW 2.3 mph3.7 kmh 26.61 in901.1 mb - 0.00 in0.0 mm 0.00 in0.0 mm
10:35 AM 75.0°F23.9°C 58.2°F14.6°C 56% 1.2 mph W1.9 kmh W 3.5 mph5.6 kmh 26.61 in901.1 mb - 0.00 in0.0 mm 0.00 in0.0 mm
10:40 AM 75.0°F23.9°C 57.7°F14.3°C 55% 3.5 mph WSW5.6 kmh WSW 3.5 mph5.6 kmh 26.61 in901.1 mb - 0.00 in0.0 mm 0.00 in0.0 mm
10:45 AM 74.0°F23.3°C 56.3°F13.5°C 54% 1.2 mph ESE1.9 kmh ESE 1.2 mph1.9 kmh 26.62 in901.5 mb - 0.00 in0.0 mm 0.00 in0.0 mm
10:50 AM 75.0°F23.9°C 58.2°F14.6°C 56% Calm Calm 1.2 mph1.9 kmh 26.61 in901.1 mb - 0.00 in0.0 mm 0.00 in0.0 mm
10:55 AM 75.0°F23.9°C 57.7°F14.3°C 55% 2.3 mph WSW3.7 kmh WSW 3.5 mph5.6 kmh 26.61 in901.1 mb - 0.00 in0.0 mm 0.00 in0.0 mm
11:00 AM 75.3°F24.1°C 58.0°F14.4°C 55% 2.3 mph W3.7 kmh W 3.5 mph5.6 kmh 26.61 in901.1 mb - 0.00 in0.0 mm 0.00 in0.0 mm
11:10 AM 76.0°F24.4°C 56.6°F13.7°C 51% 1.2 mph NE1.9 kmh NE 1.2 mph1.9 kmh 26.61 in901.1 mb - 0.00 in0.0 mm 0.00 in0.0 mm
11:15 AM 75.0°F23.9°C 56.7°F13.7°C 53% Calm Calm 1.2 mph1.9 kmh 26.60 in900.8 mb - 0.00 in0.0 mm 0.00 in0.0 mm
11:20 AM 76.0°F24.4°C 57.1°F13.9°C 52% 1.2 mph WSW1.9 kmh WSW 1.2 mph1.9 kmh 26.60 in900.8 mb - 0.00 in0.0 mm 0.00 in0.0 mm
11:25 AM 76.0°F24.4°C 58.2°F14.6°C 54% 2.3 mph W3.7 kmh W 3.5 mph5.6 kmh 26.60 in900.8 mb - 0.00 in0.0 mm 0.00 in0.0 mm
11:30 AM 76.0°F24.4°C 58.7°F14.8°C 55% 3.5 mph W5.6 kmh W 3.5 mph5.6 kmh 26.60 in900.8 mb - 0.00 in0.0 mm 0.00 in0.0 mm
11:35 AM 76.0°F24.4°C 57.1°F13.9°C 52% 2.3 mph W3.7 kmh W 3.5 mph5.6 kmh 26.60 in900.8 mb - 0.00 in0.0 mm 0.00 in0.0 mm
11:40 AM 77.0°F25.0°C 56.9°F13.8°C 50% Calm Calm -- 26.60 in900.8 mb - 0.00 in0.0 mm 0.00 in0.0 mm
11:45 AM 77.0°F25.0°C 56.4°F13.6°C 49% 1.2 mph N1.9 kmh N 2.3 mph3.7 kmh 26.60 in900.8 mb - 0.00 in0.0 mm 0.00 in0.0 mm
11:50 AM 77.0°F25.0°C 56.9°F13.8°C 50% 2.3 mph W3.7 kmh W 2.3 mph3.7 kmh 26.60 in900.8 mb - 0.00 in0.0 mm 0.00 in0.0 mm
11:55 AM 77.0°F25.0°C 56.9°F13.8°C 50% 2.3 mph W3.7 kmh W 2.3 mph3.7 kmh 26.60 in900.8 mb - 0.00 in0.0 mm 0.00 in0.0 mm
12:00 PM 77.0°F25.0°C 57.5°F14.2°C 51% Calm Calm 1.2 mph1.9 kmh 26.60 in900.8 mb - 0.00 in0.0 mm 0.00 in0.0 mm
12:10 PM 78.0°F25.6°C 58.4°F14.7°C 51% 3.5 mph SSW5.6 kmh SSW 3.5 mph5.6 kmh 26.60 in900.8 mb - 0.00 in0.0 mm 0.00 in0.0 mm
12:15 PM 78.0°F25.6°C 58.4°F14.7°C 51% 2.3 mph SW3.7 kmh SW 3.5 mph5.6 kmh 26.60 in900.8 mb - 0.00 in0.0 mm 0.00 in0.0 mm
12:20 PM 78.0°F25.6°C 58.9°F14.9°C 52% 1.2 mph SW1.9 kmh SW 3.5 mph5.6 kmh 26.60 in900.8 mb - 0.00 in0.0 mm 0.00 in0.0 mm
12:25 PM 78.0°F25.6°C 59.5°F15.3°C 53% 1.2 mph NW1.9 kmh NW 2.3 mph3.7 kmh 26.60 in900.8 mb - 0.00 in0.0 mm 0.00 in0.0 mm
12:30 PM 79.0°F26.1°C 60.4°F15.8°C 53% 1.2 mph SW1.9 kmh SW 1.2 mph1.9 kmh 26.59 in900.4 mb - 0.00 in0.0 mm 0.00 in0.0 mm
12:35 PM 78.0°F25.6°C 58.9°F14.9°C 52% Calm Calm 1.2 mph1.9 kmh 26.59 in900.4 mb - 0.00 in0.0 mm 0.00 in0.0 mm
12:40 PM 78.0°F25.6°C 58.9°F14.9°C 52% 1.2 mph NW1.9 kmh NW 1.2 mph1.9 kmh 26.59 in900.4 mb - 0.00 in0.0 mm 0.00 in0.0 mm
12:45 PM 78.0°F25.6°C 58.9°F14.9°C 52% 1.2 mph NW1.9 kmh NW 2.3 mph3.7 kmh 26.57 in899.8 mb - 0.00 in0.0 mm 0.00 in0.0 mm
12:50 PM 78.0°F25.6°C 58.9°F14.9°C 52% 1.2 mph NW1.9 kmh NW 2.3 mph3.7 kmh 26.57 in899.8 mb - 0.00 in0.0 mm 0.00 in0.0 mm
12:55 PM 78.0°F25.6°C 59.5°F15.3°C 53% 2.3 mph WNW3.7 kmh WNW 3.5 mph5.6 kmh 26.58 in900.1 mb - 0.00 in0.0 mm 0.00 in0.0 mm
01:00 PM 79.0°F26.1°C 58.8°F14.9°C 50% 2.3 mph N3.7 kmh N 2.3 mph3.7 kmh 26.58 in900.1 mb - 0.00 in0.0 mm 0.00 in0.0 mm
01:10 PM 80.0°F26.7°C 60.2°F15.7°C 51% Calm Calm 1.2 mph1.9 kmh 26.58 in900.1 mb - 0.00 in0.0 mm 0.00 in0.0 mm
01:15 PM 80.0°F26.7°C 59.7°F15.4°C 50% Calm Calm 1.2 mph1.9 kmh 26.58 in900.1 mb - 0.00 in0.0 mm 0.00 in0.0 mm
01:20 PM 79.0°F26.1°C 57.6°F14.2°C 48% Calm Calm 1.2 mph1.9 kmh 26.58 in900.1 mb - 0.00 in0.0 mm 0.00 in0.0 mm
01:25 PM 78.0°F25.6°C 57.9°F14.4°C 50% 2.3 mph S3.7 kmh S 3.5 mph5.6 kmh 26.58 in900.1 mb - 0.00 in0.0 mm 0.00 in0.0 mm
01:30 PM 79.0°F26.1°C 58.2°F14.6°C 49% 1.2 mph N1.9 kmh N 1.2 mph1.9 kmh 26.58 in900.1 mb - 0.00 in0.0 mm 0.00 in0.0 mm
01:35 PM 77.0°F25.0°C 56.9°F13.8°C 50% 1.2 mph NNW1.9 kmh NNW 1.2 mph1.9 kmh 26.58 in900.1 mb - 0.00 in0.0 mm 0.00 in0.0 mm
01:40 PM 76.3°F24.6°C 56.9°F13.8°C 51% Calm Calm 1.2 mph1.9 kmh 26.58 in900.1 mb - 0.00 in0.0 mm 0.00 in0.0 mm
01:45 PM 76.0°F24.4°C 57.1°F13.9°C 52% Calm Calm -- 26.58 in900.1 mb - 0.00 in0.0 mm 0.00 in0.0 mm
01:50 PM 78.0°F25.6°C 57.3°F14.1°C 49% 3.5 mph WNW5.6 kmh WNW 5.8 mph9.3 kmh 26.58 in900.1 mb - 0.00 in0.0 mm 0.00 in0.0 mm
01:55 PM 79.0°F26.1°C 57.0°F13.9°C 47% 2.3 mph W3.7 kmh W 3.5 mph5.6 kmh 26.58 in900.1 mb - 0.00 in0.0 mm 0.00 in0.0 mm
02:00 PM 79.0°F26.1°C 57.6°F14.2°C 48% 4.6 mph WNW7.4 kmh WNW 6.9 mph11.1 kmh 26.58 in900.1 mb - 0.00 in0.0 mm 0.00 in0.0 mm
02:10 PM 77.9°F25.5°C 57.8°F14.3°C 50% 2.3 mph WNW3.7 kmh WNW 3.5 mph5.6 kmh 26.58 in900.1 mb - 0.00 in0.0 mm 0.00 in0.0 mm
02:15 PM 77.0°F25.0°C 58.0°F14.4°C 52% 1.2 mph NW1.9 kmh NW 1.2 mph1.9 kmh 26.58 in900.1 mb - 0.00 in0.0 mm 0.00 in0.0 mm
02:20 PM 76.0°F24.4°C 56.6°F13.7°C 51% 2.3 mph W3.7 kmh W 3.5 mph5.6 kmh 26.58 in900.1 mb - 0.00 in0.0 mm 0.00 in0.0 mm
02:25 PM 77.0°F25.0°C 56.9°F13.8°C 50% 2.3 mph SSE3.7 kmh SSE 2.3 mph3.7 kmh 26.58 in900.1 mb - 0.00 in0.0 mm 0.00 in0.0 mm
02:30 PM 74.0°F23.3°C 56.3°F13.5°C 54% 1.2 mph W1.9 kmh W 3.5 mph5.6 kmh 26.58 in900.1 mb - 0.00 in0.0 mm 0.00 in0.0 mm
02:35 PM 74.0°F23.3°C 56.3°F13.5°C 54% 1.2 mph WSW1.9 kmh WSW 3.5 mph5.6 kmh 26.58 in900.1 mb - 0.00 in0.0 mm 0.00 in0.0 mm
02:40 PM 74.0°F23.3°C 56.3°F13.5°C 54% 2.3 mph ESE3.7 kmh ESE 3.5 mph5.6 kmh 26.58 in900.1 mb - 0.00 in0.0 mm 0.00 in0.0 mm
02:45 PM 74.0°F23.3°C 56.8°F13.8°C 55% Calm Calm 1.2 mph1.9 kmh 26.57 in899.8 mb - 0.00 in0.0 mm 0.00 in0.0 mm
02:50 PM 76.0°F24.4°C 57.6°F14.2°C 53% Calm Calm -- 26.57 in899.8 mb - 0.00 in0.0 mm 0.00 in0.0 mm
02:55 PM 76.0°F24.4°C 56.0°F13.3°C 50% Calm Calm 1.2 mph1.9 kmh 26.57 in899.8 mb - 0.00 in0.0 mm 0.00 in0.0 mm
03:00 PM 75.5°F24.2°C 56.1°F13.4°C 51% Calm Calm 1.2 mph1.9 kmh 26.57 in899.8 mb - 0.00 in0.0 mm 0.00 in0.0 mm
03:10 PM 75.0°F23.9°C 58.2°F14.6°C 56% Calm Calm 1.2 mph1.9 kmh 26.57 in899.8 mb - 0.00 in0.0 mm 0.00 in0.0 mm
03:15 PM 74.0°F23.3°C 57.3°F14.1°C 56% Calm Calm -- 26.57 in899.8 mb - 0.00 in0.0 mm 0.00 in0.0 mm
03:20 PM 73.0°F22.8°C 57.3°F14.1°C 58% Calm Calm -- 26.57 in899.8 mb - 0.00 in0.0 mm 0.00 in0.0 mm
03:25 PM 73.0°F22.8°C 56.9°F13.8°C 57% Calm Calm -- 26.58 in900.1 mb - 0.00 in0.0 mm 0.00 in0.0 mm
03:30 PM 73.0°F22.8°C 56.9°F13.8°C 57% Calm Calm -- 26.58 in900.1 mb - 0.00 in0.0 mm 0.00 in0.0 mm
03:35 PM 73.0°F22.8°C 56.9°F13.8°C 57% 1.2 mph ESE1.9 kmh ESE 3.5 mph5.6 kmh 26.57 in899.8 mb - 0.00 in0.0 mm 0.00 in0.0 mm
03:40 PM 72.0°F22.2°C 56.4°F13.6°C 58% Calm Calm -- 26.58 in900.1 mb - 0.00 in0.0 mm 0.00 in0.0 mm
03:45 PM 72.0°F22.2°C 56.9°F13.8°C 59% 1.2 mph WSW1.9 kmh WSW 1.2 mph1.9 kmh 26.57 in899.8 mb - 0.00 in0.0 mm 0.00 in0.0 mm
03:50 PM 72.0°F22.2°C 60.0°F15.6°C 66% Calm Calm -- 26.57 in899.8 mb - 0.00 in0.0 mm 0.00 in0.0 mm
03:55 PM 71.3°F21.8°C 59.4°F15.2°C 66% Calm Calm 1.2 mph1.9 kmh 26.57 in899.8 mb - 0.00 in0.0 mm 0.00 in0.0 mm
04:00 PM 70.0°F21.1°C 62.8°F17.1°C 78% Calm Calm 1.2 mph1.9 kmh 26.57 in899.8 mb - 0.00 in0.0 mm 0.00 in0.0 mm
04:10 PM 68.0°F20.0°C 59.8°F15.4°C 75% Calm Calm 1.2 mph1.9 kmh 26.57 in899.8 mb - 0.01 in0.3 mm 0.01 in0.3 mm
04:15 PM 69.0°F20.6°C 62.9°F17.2°C 81% Calm Calm -- 26.58 in900.1 mb - 0.01 in0.3 mm 0.01 in0.3 mm
04:20 PM 69.8°F21.0°C 64.4°F18.0°C 83% Calm Calm -- 26.57 in899.8 mb - 0.01 in0.3 mm 0.01 in0.3 mm
04:25 PM 70.0°F21.1°C 64.2°F17.9°C 82% Calm Calm -- 26.57 in899.8 mb - 0.01 in0.3 mm 0.01 in0.3 mm
04:30 PM 70.0°F21.1°C 62.1°F16.7°C 76% Calm Calm 1.2 mph1.9 kmh 26.57 in899.8 mb - 0.01 in0.3 mm 0.01 in0.3 mm
04:35 PM 70.0°F21.1°C 60.2°F15.7°C 71% Calm Calm -- 26.57 in899.8 mb - 0.01 in0.3 mm 0.01 in0.3 mm
04:40 PM 71.0°F21.7°C 59.1°F15.1°C 66% Calm Calm -- 26.57 in899.8 mb - 0.01 in0.3 mm 0.01 in0.3 mm
04:45 PM 72.0°F22.2°C 58.3°F14.6°C 62% Calm Calm -- 26.57 in899.8 mb - 0.01 in0.3 mm 0.01 in0.3 mm
04:50 PM 72.0°F22.2°C 58.7°F14.8°C 63% Calm Calm -- 26.57 in899.8 mb - 0.01 in0.3 mm 0.01 in0.3 mm
04:55 PM 72.0°F22.2°C 60.9°F16.1°C 68% Calm Calm -- 26.57 in899.8 mb - 0.01 in0.3 mm 0.01 in0.3 mm
05:00 PM 72.0°F22.2°C 60.0°F15.6°C 66% Calm Calm -- 26.57 in899.8 mb - 0.01 in0.3 mm 0.01 in0.3 mm
05:10 PM 73.0°F22.8°C 59.2°F15.1°C 62% Calm Calm -- 26.57 in899.8 mb - 0.00 in0.0 mm 0.01 in0.3 mm
05:15 PM 72.5°F22.5°C 58.8°F14.9°C 62% Calm Calm -- 26.57 in899.8 mb - 0.00 in0.0 mm 0.01 in0.3 mm
05:20 PM 72.0°F22.2°C 58.7°F14.8°C 63% Calm Calm -- 26.57 in899.8 mb - 0.00 in0.0 mm 0.01 in0.3 mm
05:25 PM 72.0°F22.2°C 58.3°F14.6°C 62% Calm Calm 1.2 mph1.9 kmh 26.57 in899.8 mb - 0.00 in0.0 mm 0.01 in0.3 mm
05:30 PM 72.0°F22.2°C 59.2°F15.1°C 64% Calm Calm -- 26.57 in899.8 mb - 0.00 in0.0 mm 0.01 in0.3 mm
05:35 PM 73.0°F22.8°C 58.3°F14.6°C 60% Calm Calm 1.2 mph1.9 kmh 26.56 in899.4 mb - 0.00 in0.0 mm 0.01 in0.3 mm
05:40 PM 73.0°F22.8°C 58.3°F14.6°C 60% Calm Calm 1.2 mph1.9 kmh 26.57 in899.8 mb - 0.00 in0.0 mm 0.01 in0.3 mm
05:45 PM 73.0°F22.8°C 58.3°F14.6°C 60% Calm Calm -- 26.57 in899.8 mb - 0.00 in0.0 mm 0.01 in0.3 mm
05:50 PM 73.0°F22.8°C 57.3°F14.1°C 58% Calm Calm 1.2 mph1.9 kmh 26.56 in899.4 mb - 0.00 in0.0 mm 0.01 in0.3 mm
05:55 PM 73.0°F22.8°C 57.8°F14.3°C 59% Calm Calm -- 26.57 in899.8 mb - 0.00 in0.0 mm 0.01 in0.3 mm
06:00 PM 73.0°F22.8°C 58.3°F14.6°C 60% Calm Calm 1.2 mph1.9 kmh 26.56 in899.4 mb - 0.00 in0.0 mm 0.01 in0.3 mm
06:10 PM 72.8°F22.7°C 58.6°F14.8°C 61% Calm Calm 1.2 mph1.9 kmh 26.57 in899.8 mb - 0.00 in0.0 mm 0.01 in0.3 mm
06:15 PM 72.0°F22.2°C 58.3°F14.6°C 62% Calm Calm 1.2 mph1.9 kmh 26.57 in899.8 mb - 0.00 in0.0 mm 0.01 in0.3 mm
06:20 PM 71.0°F21.7°C 57.3°F14.1°C 62% Calm Calm -- 26.57 in899.8 mb - 0.00 in0.0 mm 0.01 in0.3 mm
06:25 PM 71.0°F21.7°C 60.3°F15.7°C 69% Calm Calm -- 26.56 in899.4 mb - 0.00 in0.0 mm 0.01 in0.3 mm
06:30 PM 71.0°F21.7°C 58.2°F14.6°C 64% Calm Calm -- 26.56 in899.4 mb - 0.00 in0.0 mm 0.01 in0.3 mm
06:35 PM 71.0°F21.7°C 58.2°F14.6°C 64% Calm Calm -- 26.57 in899.8 mb - 0.00 in0.0 mm 0.01 in0.3 mm
06:40 PM 71.0°F21.7°C 58.2°F14.6°C 64% Calm Calm -- 26.57 in899.8 mb - 0.00 in0.0 mm 0.01 in0.3 mm
06:45 PM 71.0°F21.7°C 58.2°F14.6°C 64% Calm Calm -- 26.56 in899.4 mb - 0.00 in0.0 mm 0.01 in0.3 mm
06:50 PM 71.0°F21.7°C 59.9°F15.5°C 68% Calm Calm -- 26.57 in899.8 mb - 0.00 in0.0 mm 0.01 in0.3 mm
06:55 PM 71.0°F21.7°C 59.5°F15.3°C 67% Calm Calm -- 26.57 in899.8 mb - 0.00 in0.0 mm 0.01 in0.3 mm
07:00 PM 70.1°F21.2°C 59.1°F15.1°C 68% Calm Calm -- 26.56 in899.4 mb - 0.00 in0.0 mm 0.01 in0.3 mm
07:10 PM 70.0°F21.1°C 59.4°F15.2°C 69% Calm Calm -- 26.57 in899.8 mb - 0.00 in0.0 mm 0.01 in0.3 mm
07:15 PM 70.0°F21.1°C 59.8°F15.4°C 70% Calm Calm -- 26.57 in899.8 mb - 0.00 in0.0 mm 0.01 in0.3 mm
07:20 PM 70.0°F21.1°C 59.8°F15.4°C 70% Calm Calm -- 26.57 in899.8 mb - 0.00 in0.0 mm 0.01 in0.3 mm
07:25 PM 70.0°F21.1°C 59.0°F15.0°C 68% Calm Calm -- 26.58 in900.1 mb - 0.00 in0.0 mm 0.01 in0.3 mm
07:30 PM 70.0°F21.1°C 59.0°F15.0°C 68% Calm Calm -- 26.58 in900.1 mb - 0.00 in0.0 mm 0.01 in0.3 mm
07:35 PM 70.0°F21.1°C 58.5°F14.7°C 67% Calm Calm -- 26.58 in900.1 mb - 0.00 in0.0 mm 0.01 in0.3 mm
07:40 PM 69.0°F20.6°C 58.4°F14.7°C 69% Calm Calm -- 26.57 in899.8 mb - 0.00 in0.0 mm 0.01 in0.3 mm
07:45 PM 69.0°F20.6°C 59.6°F15.3°C 72% Calm Calm -- 26.58 in900.1 mb - 0.00 in0.0 mm 0.01 in0.3 mm
07:50 PM 69.0°F20.6°C 59.6°F15.3°C 72% Calm Calm -- 26.58 in900.1 mb - 0.00 in0.0 mm 0.01 in0.3 mm
07:55 PM 68.3°F20.2°C 59.3°F15.2°C 73% Calm Calm -- 26.59 in900.4 mb - 0.00 in0.0 mm 0.01 in0.3 mm
08:00 PM 68.0°F20.0°C 59.0°F15.0°C 73% Calm Calm -- 26.59 in900.4 mb - 0.00 in0.0 mm 0.01 in0.3 mm
08:10 PM 68.0°F20.0°C 58.6°F14.8°C 72% Calm Calm -- 26.58 in900.1 mb - 0.00 in0.0 mm 0.01 in0.3 mm
08:15 PM 68.0°F20.0°C 59.4°F15.2°C 74% Calm Calm -- 26.58 in900.1 mb - 0.00 in0.0 mm 0.01 in0.3 mm
08:20 PM 67.0°F19.4°C 58.4°F14.7°C 74% Calm Calm -- 26.58 in900.1 mb - 0.00 in0.0 mm 0.01 in0.3 mm
08:25 PM 67.0°F19.4°C 58.4°F14.7°C 74% Calm Calm -- 26.58 in900.1 mb - 0.00 in0.0 mm 0.01 in0.3 mm
08:30 PM 67.0°F19.4°C 58.8°F14.9°C 75% Calm Calm -- 26.58 in900.1 mb - 0.00 in0.0 mm 0.01 in0.3 mm
08:35 PM 66.0°F18.9°C 57.8°F14.3°C 75% Calm Calm -- 26.58 in900.1 mb - 0.00 in0.0 mm 0.01 in0.3 mm
08:40 PM 66.0°F18.9°C 58.2°F14.6°C 76% Calm Calm -- 26.59 in900.4 mb - 0.00 in0.0 mm 0.01 in0.3 mm
08:45 PM 65.0°F18.3°C 58.0°F14.4°C 78% Calm Calm -- 26.59 in900.4 mb - 0.00 in0.0 mm 0.01 in0.3 mm
08:50 PM 65.0°F18.3°C 58.0°F14.4°C 78% Calm Calm -- 26.59 in900.4 mb - 0.00 in0.0 mm 0.01 in0.3 mm
08:55 PM 65.0°F18.3°C 58.3°F14.6°C 79% Calm Calm -- 26.59 in900.4 mb - 0.00 in0.0 mm 0.01 in0.3 mm
09:00 PM 64.0°F17.8°C 57.7°F14.3°C 80% Calm Calm -- 26.60 in900.8 mb - 0.00 in0.0 mm 0.01 in0.3 mm
09:10 PM 64.0°F17.8°C 57.4°F14.1°C 79% Calm Calm -- 26.60 in900.8 mb - 0.00 in0.0 mm 0.01 in0.3 mm
09:15 PM 64.0°F17.8°C 57.7°F14.3°C 80% Calm Calm -- 26.60 in900.8 mb - 0.00 in0.0 mm 0.01 in0.3 mm
09:20 PM 64.0°F17.8°C 58.1°F14.5°C 81% Calm Calm -- 26.60 in900.8 mb - 0.00 in0.0 mm 0.01 in0.3 mm
09:25 PM 64.0°F17.8°C 58.1°F14.5°C 81% Calm Calm -- 26.60 in900.8 mb - 0.00 in0.0 mm 0.01 in0.3 mm
09:30 PM 63.0°F17.2°C 57.4°F14.1°C 82% Calm Calm -- 26.60 in900.8 mb - 0.00 in0.0 mm 0.01 in0.3 mm
09:35 PM 63.0°F17.2°C 57.4°F14.1°C 82% Calm Calm -- 26.60 in900.8 mb - 0.00 in0.0 mm 0.01 in0.3 mm
09:40 PM 63.0°F17.2°C 57.1°F13.9°C 81% Calm Calm -- 26.60 in900.8 mb - 0.00 in0.0 mm 0.01 in0.3 mm
09:45 PM 63.0°F17.2°C 57.1°F13.9°C 81% Calm Calm -- 26.60 in900.8 mb - 0.00 in0.0 mm 0.01 in0.3 mm
09:50 PM 66.3°F19.1°C 58.5°F14.7°C 76% Calm Calm -- 26.59 in900.4 mb - 0.00 in0.0 mm 0.01 in0.3 mm
09:55 PM 68.0°F20.0°C 59.4°F15.2°C 74% Calm Calm -- 26.58 in900.1 mb - 0.00 in0.0 mm 0.01 in0.3 mm
10:00 PM 62.0°F16.7°C 56.8°F13.8°C 83% Calm Calm -- 26.60 in900.8 mb - 0.00 in0.0 mm 0.01 in0.3 mm
10:10 PM 64.0°F17.8°C 57.4°F14.1°C 79% Calm Calm -- 26.60 in900.8 mb - 0.00 in0.0 mm 0.01 in0.3 mm
10:15 PM 62.0°F16.7°C 56.8°F13.8°C 83% Calm Calm -- 26.60 in900.8 mb - 0.00 in0.0 mm 0.01 in0.3 mm
10:20 PM 62.0°F16.7°C 56.4°F13.6°C 82% Calm Calm -- 26.60 in900.8 mb - 0.00 in0.0 mm 0.01 in0.3 mm
10:25 PM 62.0°F16.7°C 56.4°F13.6°C 82% Calm Calm -- 26.60 in900.8 mb - 0.00 in0.0 mm 0.01 in0.3 mm
10:30 PM 62.0°F16.7°C 56.8°F13.8°C 83% Calm Calm -- 26.60 in900.8 mb - 0.00 in0.0 mm 0.01 in0.3 mm
10:35 PM 62.0°F16.7°C 56.8°F13.8°C 83% Calm Calm -- 26.61 in901.1 mb - 0.00 in0.0 mm 0.01 in0.3 mm
10:40 PM 61.0°F16.1°C 56.1°F13.4°C 84% Calm Calm -- 26.60 in900.8 mb - 0.00 in0.0 mm 0.01 in0.3 mm
10:45 PM 61.0°F16.1°C 56.5°F13.6°C 85% Calm Calm -- 26.60 in900.8 mb - 0.00 in0.0 mm 0.01 in0.3 mm
10:50 PM 61.0°F16.1°C 56.5°F13.6°C 85% Calm Calm -- 26.60 in900.8 mb - 0.00 in0.0 mm 0.01 in0.3 mm
10:55 PM 61.0°F16.1°C 56.5°F13.6°C 85% Calm Calm -- 26.60 in900.8 mb - 0.00 in0.0 mm 0.01 in0.3 mm
11:00 PM 61.0°F16.1°C 57.1°F13.9°C 87% Calm Calm -- 26.60 in900.8 mb - 0.00 in0.0 mm 0.11 in2.8 mm
11:10 PM 60.0°F15.6°C 55.8°F13.2°C 86% Calm Calm -- 26.61 in901.1 mb - 0.00 in0.0 mm 0.11 in2.8 mm
11:15 PM 61.0°F16.1°C 56.8°F13.8°C 86% Calm Calm -- 26.61 in901.1 mb - 0.00 in0.0 mm 0.11 in2.8 mm
11:20 PM 61.0°F16.1°C 56.8°F13.8°C 86% Calm Calm -- 26.61 in901.1 mb - 0.00 in0.0 mm 0.11 in2.8 mm
11:25 PM 61.0°F16.1°C 56.8°F13.8°C 86% Calm Calm -- 26.61 in901.1 mb - 0.00 in0.0 mm 0.11 in2.8 mm
11:30 PM 61.0°F16.1°C 56.8°F13.8°C 86% Calm Calm -- 26.61 in901.1 mb - 0.00 in0.0 mm 0.11 in2.8 mm
11:35 PM 60.0°F15.6°C 55.8°F13.2°C 86% Calm Calm -- 26.60 in900.8 mb - 0.00 in0.0 mm 0.11 in2.8 mm
11:40 PM 61.0°F16.1°C 56.5°F13.6°C 85% Calm Calm -- 26.61 in901.1 mb - 0.00 in0.0 mm 0.11 in2.8 mm
11:45 PM 61.0°F16.1°C 56.5°F13.6°C 85% Calm Calm -- 26.61 in901.1 mb - 0.00 in0.0 mm 0.11 in2.8 mm
11:50 PM 61.0°F16.1°C 56.1°F13.4°C 84% Calm Calm -- 26.61 in901.1 mb - 0.00 in0.0 mm 0.11 in2.8 mm
11:55 PM 61.0°F16.1°C 56.1°F13.4°C 84% Calm Calm -- 26.61 in901.1 mb - 0.00 in0.0 mm 0.11 in2.8 mm